sensor_id;sensor_type;location;lat;lon;timestamp;noise_LAeq;noise_LA_min;noise_LA_max;noise_LA01;noise_LA95
72466;Laerm;60471;52.150;4.508;2023-09-12T00:00:05;58.63;39.72;71.08;;
72466;Laerm;60471;52.150;4.508;2023-09-12T00:02:31;58.76;40.08;71.56;;
72466;Laerm;60471;52.150;4.508;2023-09-12T00:04:58;59.07;40.32;71.27;;
72466;Laerm;60471;52.150;4.508;2023-09-12T00:07:24;58.81;40.11;70.65;;
72466;Laerm;60471;52.150;4.508;2023-09-12T00:09:50;59.00;41.61;71.25;;
72466;Laerm;60471;52.150;4.508;2023-09-12T00:12:17;58.80;39.41;70.47;;
72466;Laerm;60471;52.150;4.508;2023-09-12T00:14:43;58.77;40.59;70.93;;
72466;Laerm;60471;52.150;4.508;2023-09-12T00:17:09;58.68;40.25;70.51;;
72466;Laerm;60471;52.150;4.508;2023-09-12T00:19:35;58.86;40.47;71.99;;
72466;Laerm;60471;52.150;4.508;2023-09-12T00:22:02;58.78;40.84;70.77;;
72466;Laerm;60471;52.150;4.508;2023-09-12T00:24:29;58.63;38.90;70.84;;
72466;Laerm;60471;52.150;4.508;2023-09-12T00:26:55;58.87;39.18;70.89;;
72466;Laerm;60471;52.150;4.508;2023-09-12T00:29:22;58.62;40.53;71.12;;
72466;Laerm;60471;52.150;4.508;2023-09-12T00:31:48;58.61;38.18;70.75;;
72466;Laerm;60471;52.150;4.508;2023-09-12T00:34:17;58.69;39.59;70.70;;
72466;Laerm;60471;52.150;4.508;2023-09-12T00:36:44;58.69;38.50;71.40;;
72466;Laerm;60471;52.150;4.508;2023-09-12T00:39:10;58.67;40.15;70.54;;
72466;Laerm;60471;52.150;4.508;2023-09-12T00:41:36;58.84;40.79;70.57;;
72466;Laerm;60471;52.150;4.508;2023-09-12T00:44:03;58.90;40.94;71.17;;
72466;Laerm;60471;52.150;4.508;2023-09-12T00:46:29;59.01;40.24;71.20;;
72466;Laerm;60471;52.150;4.508;2023-09-12T00:48:57;58.82;39.76;71.70;;
72466;Laerm;60471;52.150;4.508;2023-09-12T00:51:26;59.06;40.03;70.32;;
72466;Laerm;60471;52.150;4.508;2023-09-12T00:53:53;58.70;39.47;70.49;;
72466;Laerm;60471;52.150;4.508;2023-09-12T00:56:20;58.56;37.92;70.44;;
72466;Laerm;60471;52.150;4.508;2023-09-12T00:58:47;58.95;39.36;70.82;;
72466;Laerm;60471;52.150;4.508;2023-09-12T01:01:13;58.76;41.07;71.05;;
72466;Laerm;60471;52.150;4.508;2023-09-12T01:03:39;58.81;38.18;70.84;;
72466;Laerm;60471;52.150;4.508;2023-09-12T01:06:08;58.52;39.34;70.56;;
72466;Laerm;60471;52.150;4.508;2023-09-12T01:08:35;58.70;40.09;71.02;;
72466;Laerm;60471;52.150;4.508;2023-09-12T01:11:04;58.64;39.39;71.30;;
72466;Laerm;60471;52.150;4.508;2023-09-12T01:13:31;58.68;40.07;70.78;;
72466;Laerm;60471;52.150;4.508;2023-09-12T01:15:57;58.88;40.83;71.01;;
72466;Laerm;60471;52.150;4.508;2023-09-12T01:18:23;58.63;39.86;70.98;;
72466;Laerm;60471;52.150;4.508;2023-09-12T01:21:39;57.90;39.89;71.04;;
72466;Laerm;60471;52.150;4.508;2023-09-12T01:27:26;58.13;40.26;71.12;;
72466;Laerm;60471;52.150;4.508;2023-09-12T01:29:57;58.64;39.56;70.50;;
72466;Laerm;60471;52.150;4.508;2023-09-12T01:32:26;44.15;39.50;50.96;;
72466;Laerm;60471;52.150;4.508;2023-09-12T01:34:52;58.65;39.32;72.44;;
72466;Laerm;60471;52.150;4.508;2023-09-12T01:37:19;58.75;41.08;70.37;;
72466;Laerm;60471;52.150;4.508;2023-09-12T01:39:45;58.95;39.96;70.54;;
72466;Laerm;60471;52.150;4.508;2023-09-12T01:42:17;58.66;40.87;71.92;;
72466;Laerm;60471;52.150;4.508;2023-09-12T01:44:45;58.45;40.47;70.79;;
72466;Laerm;60471;52.150;4.508;2023-09-12T01:47:13;58.75;40.09;72.21;;
72466;Laerm;60471;52.150;4.508;2023-09-12T01:49:45;58.59;40.12;70.64;;
72466;Laerm;60471;52.150;4.508;2023-09-12T01:52:13;47.61;39.13;59.09;;
72466;Laerm;60471;52.150;4.508;2023-09-12T01:54:42;58.77;41.07;71.32;;
72466;Laerm;60471;52.150;4.508;2023-09-12T01:57:09;58.73;41.81;70.45;;
72466;Laerm;60471;52.150;4.508;2023-09-12T01:59:36;58.61;41.06;70.53;;
72466;Laerm;60471;52.150;4.508;2023-09-12T02:02:03;58.58;40.77;70.72;;
72466;Laerm;60471;52.150;4.508;2023-09-12T02:04:29;58.67;39.94;71.16;;
72466;Laerm;60471;52.150;4.508;2023-09-12T02:06:55;58.69;41.46;70.76;;
72466;Laerm;60471;52.150;4.508;2023-09-12T02:09:22;58.71;40.27;71.16;;
72466;Laerm;60471;52.150;4.508;2023-09-12T02:11:49;58.76;41.13;71.04;;
72466;Laerm;60471;52.150;4.508;2023-09-12T02:14:15;58.61;41.70;70.83;;
72466;Laerm;60471;52.150;4.508;2023-09-12T02:16:42;58.67;40.69;70.70;;
72466;Laerm;60471;52.150;4.508;2023-09-12T02:19:08;58.64;40.06;70.99;;
72466;Laerm;60471;52.150;4.508;2023-09-12T02:21:34;58.69;40.89;70.48;;
72466;Laerm;60471;52.150;4.508;2023-09-12T02:24:00;58.73;42.31;70.56;;
72466;Laerm;60471;52.150;4.508;2023-09-12T02:26:27;59.01;41.71;71.25;;
72466;Laerm;60471;52.150;4.508;2023-09-12T02:28:53;59.21;41.75;71.51;;
72466;Laerm;60471;52.150;4.508;2023-09-12T02:31:19;58.76;42.00;70.39;;
72466;Laerm;60471;52.150;4.508;2023-09-12T02:33:46;58.77;41.39;70.43;;
72466;Laerm;60471;52.150;4.508;2023-09-12T02:36:13;58.82;41.84;71.47;;
72466;Laerm;60471;52.150;4.508;2023-09-12T02:38:40;58.85;42.77;71.12;;
72466;Laerm;60471;52.150;4.508;2023-09-12T02:41:06;58.95;41.63;70.99;;
72466;Laerm;60471;52.150;4.508;2023-09-12T02:43:32;58.94;42.80;71.12;;
72466;Laerm;60471;52.150;4.508;2023-09-12T02:45:58;59.21;43.38;70.71;;
72466;Laerm;60471;52.150;4.508;2023-09-12T02:48:24;58.73;41.70;70.48;;
72466;Laerm;60471;52.150;4.508;2023-09-12T02:50:51;58.55;42.41;70.72;;
72466;Laerm;60471;52.150;4.508;2023-09-12T02:53:17;58.87;42.46;70.72;;
72466;Laerm;60471;52.150;4.508;2023-09-12T02:55:43;58.94;43.44;70.37;;
72466;Laerm;60471;52.150;4.508;2023-09-12T02:58:09;59.19;42.34;71.49;;
72466;Laerm;60471;52.150;4.508;2023-09-12T03:00:39;59.17;45.07;70.63;;
72466;Laerm;60471;52.150;4.508;2023-09-12T03:03:07;59.09;44.90;70.90;;
72466;Laerm;60471;52.150;4.508;2023-09-12T03:05:35;58.93;43.56;70.52;;
72466;Laerm;60471;52.150;4.508;2023-09-12T03:08:02;58.96;43.41;72.00;;
72466;Laerm;60471;52.150;4.508;2023-09-12T03:10:29;58.92;43.81;70.81;;
72466;Laerm;60471;52.150;4.508;2023-09-12T03:12:55;59.33;45.16;71.16;;
72466;Laerm;60471;52.150;4.508;2023-09-12T03:15:22;59.08;45.85;70.68;;
72466;Laerm;60471;52.150;4.508;2023-09-12T03:17:48;59.14;45.42;71.30;;
72466;Laerm;60471;52.150;4.508;2023-09-12T03:20:14;59.32;45.28;71.61;;
72466;Laerm;60471;52.150;4.508;2023-09-12T03:22:40;59.39;47.67;71.37;;
72466;Laerm;60471;52.150;4.508;2023-09-12T03:25:07;59.47;46.28;70.75;;
72466;Laerm;60471;52.150;4.508;2023-09-12T03:27:34;59.63;47.32;71.42;;
72466;Laerm;60471;52.150;4.508;2023-09-12T03:30:00;59.79;47.53;71.29;;
72466;Laerm;60471;52.150;4.508;2023-09-12T03:32:26;59.74;47.24;71.20;;
72466;Laerm;60471;52.150;4.508;2023-09-12T03:34:52;59.99;47.58;71.45;;
72466;Laerm;60471;52.150;4.508;2023-09-12T03:37:19;60.34;47.39;72.12;;
72466;Laerm;60471;52.150;4.508;2023-09-12T03:39:45;59.67;47.78;71.37;;
72466;Laerm;60471;52.150;4.508;2023-09-12T03:42:11;60.10;49.04;70.79;;
72466;Laerm;60471;52.150;4.508;2023-09-12T03:44:37;59.31;48.08;71.07;;
72466;Laerm;60471;52.150;4.508;2023-09-12T03:47:04;59.41;47.84;71.12;;
72466;Laerm;60471;52.150;4.508;2023-09-12T03:49:30;59.59;45.98;70.67;;
72466;Laerm;60471;52.150;4.508;2023-09-12T03:51:56;60.00;48.00;71.16;;
72466;Laerm;60471;52.150;4.508;2023-09-12T03:54:23;59.44;47.62;71.15;;
72466;Laerm;60471;52.150;4.508;2023-09-12T03:56:49;59.51;47.44;70.99;;
72466;Laerm;60471;52.150;4.508;2023-09-12T03:59:15;60.64;49.24;70.51;;
72466;Laerm;60471;52.150;4.508;2023-09-12T04:01:41;59.67;48.62;71.71;;
72466;Laerm;60471;52.150;4.508;2023-09-12T04:04:08;60.08;49.45;71.08;;
72466;Laerm;60471;52.150;4.508;2023-09-12T04:06:34;59.71;48.79;70.54;;
72466;Laerm;60471;52.150;4.508;2023-09-12T04:09:00;59.75;49.15;71.18;;
72466;Laerm;60471;52.150;4.508;2023-09-12T04:11:26;60.39;49.85;71.42;;
72466;Laerm;60471;52.150;4.508;2023-09-12T04:13:53;60.16;49.69;70.96;;
72466;Laerm;60471;52.150;4.508;2023-09-12T04:16:19;59.73;48.14;71.20;;
72466;Laerm;60471;52.150;4.508;2023-09-12T04:18:45;59.85;49.45;71.02;;
72466;Laerm;60471;52.150;4.508;2023-09-12T04:21:11;60.21;50.46;71.01;;
72466;Laerm;60471;52.150;4.508;2023-09-12T04:23:38;60.56;51.57;70.91;;
72466;Laerm;60471;52.150;4.508;2023-09-12T04:26:04;60.24;50.14;71.54;;
72466;Laerm;60471;52.150;4.508;2023-09-12T04:28:30;60.36;50.96;71.90;;
72466;Laerm;60471;52.150;4.508;2023-09-12T04:31:03;60.64;52.18;71.42;;
72466;Laerm;60471;52.150;4.508;2023-09-12T04:33:30;60.77;52.25;71.42;;
72466;Laerm;60471;52.150;4.508;2023-09-12T04:36:04;60.70;51.69;71.42;;
72466;Laerm;60471;52.150;4.508;2023-09-12T04:38:30;60.64;51.77;71.40;;
72466;Laerm;60471;52.150;4.508;2023-09-12T04:41:02;60.22;51.63;71.06;;
72466;Laerm;60471;52.150;4.508;2023-09-12T04:43:32;60.33;51.24;70.73;;
72466;Laerm;60471;52.150;4.508;2023-09-12T04:45:58;60.95;52.09;71.48;;
72466;Laerm;60471;52.150;4.508;2023-09-12T04:48:25;60.66;51.88;71.11;;
72466;Laerm;60471;52.150;4.508;2023-09-12T04:50:51;60.37;50.07;71.35;;
72466;Laerm;60471;52.150;4.508;2023-09-12T04:53:17;60.60;50.89;71.16;;
72466;Laerm;60471;52.150;4.508;2023-09-12T04:55:43;60.95;51.10;71.88;;
72466;Laerm;60471;52.150;4.508;2023-09-12T04:58:10;61.18;52.84;72.02;;
72466;Laerm;60471;52.150;4.508;2023-09-12T05:00:39;60.95;52.69;71.19;;
72466;Laerm;60471;52.150;4.508;2023-09-12T05:03:05;61.33;53.55;70.87;;
72466;Laerm;60471;52.150;4.508;2023-09-12T05:05:35;60.97;52.69;72.35;;
72466;Laerm;60471;52.150;4.508;2023-09-12T05:08:04;60.63;51.30;71.50;;
72466;Laerm;60471;52.150;4.508;2023-09-12T05:10:31;60.82;51.53;71.04;;
72466;Laerm;60471;52.150;4.508;2023-09-12T05:12:57;60.69;51.06;71.26;;
72466;Laerm;60471;52.150;4.508;2023-09-12T05:15:23;60.98;51.72;71.38;;
72466;Laerm;60471;52.150;4.508;2023-09-12T05:17:50;61.19;51.05;70.74;;
72466;Laerm;60471;52.150;4.508;2023-09-12T05:20:16;60.05;50.34;70.80;;
72466;Laerm;60471;52.150;4.508;2023-09-12T05:22:42;60.80;51.84;71.67;;
72466;Laerm;60471;52.150;4.508;2023-09-12T05:25:08;60.94;52.27;70.88;;
72466;Laerm;60471;52.150;4.508;2023-09-12T05:27:35;61.22;52.79;71.59;;
72466;Laerm;60471;52.150;4.508;2023-09-12T05:30:01;62.06;52.41;71.41;;
72466;Laerm;60471;52.150;4.508;2023-09-12T05:32:28;62.10;51.74;79.65;;
72466;Laerm;60471;52.150;4.508;2023-09-12T05:34:54;61.53;51.28;70.80;;
72466;Laerm;60471;52.150;4.508;2023-09-12T05:37:20;60.34;51.92;71.33;;
72466;Laerm;60471;52.150;4.508;2023-09-12T05:39:46;61.09;53.16;70.71;;
72466;Laerm;60471;52.150;4.508;2023-09-12T05:42:13;60.91;51.92;71.66;;
72466;Laerm;60471;52.150;4.508;2023-09-12T05:44:41;61.52;51.54;71.10;;
72466;Laerm;60471;52.150;4.508;2023-09-12T05:47:08;61.25;51.92;71.04;;
72466;Laerm;60471;52.150;4.508;2023-09-12T05:49:34;60.93;53.03;71.38;;
72466;Laerm;60471;52.150;4.508;2023-09-12T05:52:00;61.71;54.27;70.81;;
72466;Laerm;60471;52.150;4.508;2023-09-12T05:54:28;61.52;53.20;71.41;;
72466;Laerm;60471;52.150;4.508;2023-09-12T05:56:54;60.69;52.12;71.13;;
72466;Laerm;60471;52.150;4.508;2023-09-12T05:59:21;61.60;52.52;71.14;;
72466;Laerm;60471;52.150;4.508;2023-09-12T06:01:47;62.16;55.18;71.76;;
72466;Laerm;60471;52.150;4.508;2023-09-12T06:04:14;60.96;52.09;70.84;;
72466;Laerm;60471;52.150;4.508;2023-09-12T06:06:40;61.21;52.67;71.39;;
72466;Laerm;60471;52.150;4.508;2023-09-12T06:09:07;61.11;52.55;70.99;;
72466;Laerm;60471;52.150;4.508;2023-09-12T06:11:34;61.24;53.19;70.77;;
72466;Laerm;60471;52.150;4.508;2023-09-12T06:14:01;61.06;51.57;71.91;;
72466;Laerm;60471;52.150;4.508;2023-09-12T06:16:27;60.54;50.89;70.98;;
72466;Laerm;60471;52.150;4.508;2023-09-12T06:18:53;61.79;53.14;71.48;;
72466;Laerm;60471;52.150;4.508;2023-09-12T06:21:20;61.32;53.18;71.47;;
72466;Laerm;60471;52.150;4.508;2023-09-12T06:24:07;61.75;53.39;79.61;;
72466;Laerm;60471;52.150;4.508;2023-09-12T06:26:34;61.30;51.88;71.42;;
72466;Laerm;60471;52.150;4.508;2023-09-12T06:29:00;61.52;53.36;71.09;;
72466;Laerm;60471;52.150;4.508;2023-09-12T06:31:26;61.90;52.46;74.75;;
72466;Laerm;60471;52.150;4.508;2023-09-12T06:33:52;61.67;53.34;71.62;;
72466;Laerm;60471;52.150;4.508;2023-09-12T06:36:19;61.18;51.32;70.88;;
72466;Laerm;60471;52.150;4.508;2023-09-12T06:38:45;61.15;52.18;71.49;;
72466;Laerm;60471;52.150;4.508;2023-09-12T06:41:11;61.27;51.13;72.23;;
72466;Laerm;60471;52.150;4.508;2023-09-12T06:43:37;61.37;52.02;70.82;;
72466;Laerm;60471;52.150;4.508;2023-09-12T06:46:04;61.57;53.15;71.60;;
72466;Laerm;60471;52.150;4.508;2023-09-12T06:48:30;61.07;51.56;72.05;;
72466;Laerm;60471;52.150;4.508;2023-09-12T06:50:56;61.15;51.56;71.07;;
72466;Laerm;60471;52.150;4.508;2023-09-12T06:53:23;61.12;52.70;70.92;;
72466;Laerm;60471;52.150;4.508;2023-09-12T06:55:49;61.29;52.60;71.06;;
72466;Laerm;60471;52.150;4.508;2023-09-12T06:58:15;61.37;53.02;70.84;;
72466;Laerm;60471;52.150;4.508;2023-09-12T07:00:42;61.78;54.06;71.50;;
72466;Laerm;60471;52.150;4.508;2023-09-12T07:03:15;61.21;52.98;71.30;;
72466;Laerm;60471;52.150;4.508;2023-09-12T07:05:42;60.98;51.28;70.94;;
72466;Laerm;60471;52.150;4.508;2023-09-12T07:08:10;60.39;50.45;70.78;;
72466;Laerm;60471;52.150;4.508;2023-09-12T07:10:36;60.94;51.06;71.43;;
72466;Laerm;60471;52.150;4.508;2023-09-12T07:13:03;60.49;50.71;70.89;;
72466;Laerm;60471;52.150;4.508;2023-09-12T07:15:29;60.53;50.80;71.41;;
72466;Laerm;60471;52.150;4.508;2023-09-12T07:17:56;60.62;48.91;71.63;;
72466;Laerm;60471;52.150;4.508;2023-09-12T07:20:22;60.01;48.91;70.80;;
72466;Laerm;60471;52.150;4.508;2023-09-12T07:22:49;60.58;49.77;71.37;;
72466;Laerm;60471;52.150;4.508;2023-09-12T07:25:16;60.38;49.94;71.24;;
72466;Laerm;60471;52.150;4.508;2023-09-12T07:27:44;60.03;49.58;71.96;;
72466;Laerm;60471;52.150;4.508;2023-09-12T07:30:10;60.01;49.05;70.81;;
72466;Laerm;60471;52.150;4.508;2023-09-12T07:32:37;58.95;48.59;70.37;;
72466;Laerm;60471;52.150;4.508;2023-09-12T07:35:03;59.80;49.02;72.47;;
72466;Laerm;60471;52.150;4.508;2023-09-12T07:37:30;59.45;48.41;70.49;;
72466;Laerm;60471;52.150;4.508;2023-09-12T07:39:56;60.02;48.83;71.18;;
72466;Laerm;60471;52.150;4.508;2023-09-12T07:42:23;60.08;48.92;70.83;;
72466;Laerm;60471;52.150;4.508;2023-09-12T07:44:50;60.03;48.61;70.65;;
72466;Laerm;60471;52.150;4.508;2023-09-12T07:47:17;59.86;49.09;70.50;;
72466;Laerm;60471;52.150;4.508;2023-09-12T07:49:43;60.18;50.53;70.26;;
72466;Laerm;60471;52.150;4.508;2023-09-12T07:52:09;59.95;48.86;70.52;;
72466;Laerm;60471;52.150;4.508;2023-09-12T07:54:36;59.98;48.65;70.30;;
72466;Laerm;60471;52.150;4.508;2023-09-12T07:57:03;59.27;47.54;70.55;;
72466;Laerm;60471;52.150;4.508;2023-09-12T07:59:29;60.19;46.68;71.72;;
72466;Laerm;60471;52.150;4.508;2023-09-12T08:01:55;60.30;48.99;70.00;;
72466;Laerm;60471;52.150;4.508;2023-09-12T08:04:21;59.55;49.60;70.96;;
72466;Laerm;60471;52.150;4.508;2023-09-12T08:06:48;59.71;48.55;69.77;;
72466;Laerm;60471;52.150;4.508;2023-09-12T08:09:14;59.77;48.80;70.54;;
72466;Laerm;60471;52.150;4.508;2023-09-12T08:11:40;60.27;50.15;71.26;;
72466;Laerm;60471;52.150;4.508;2023-09-12T08:14:06;59.90;49.06;70.75;;
72466;Laerm;60471;52.150;4.508;2023-09-12T08:16:32;60.21;49.84;70.41;;
72466;Laerm;60471;52.150;4.508;2023-09-12T08:18:59;59.81;48.40;70.36;;
72466;Laerm;60471;52.150;4.508;2023-09-12T08:21:25;59.35;47.33;70.38;;
72466;Laerm;60471;52.150;4.508;2023-09-12T08:23:51;59.99;48.36;69.99;;
72466;Laerm;60471;52.150;4.508;2023-09-12T08:26:17;61.08;50.87;78.58;;
72466;Laerm;60471;52.150;4.508;2023-09-12T08:28:44;59.83;49.94;73.41;;
72466;Laerm;60471;52.150;4.508;2023-09-12T08:31:10;60.43;49.09;70.68;;
72466;Laerm;60471;52.150;4.508;2023-09-12T08:33:36;60.67;49.27;76.37;;
72466;Laerm;60471;52.150;4.508;2023-09-12T08:36:02;59.07;46.80;70.39;;
72466;Laerm;60471;52.150;4.508;2023-09-12T08:38:29;59.27;46.57;69.72;;
72466;Laerm;60471;52.150;4.508;2023-09-12T08:40:55;60.04;48.71;70.01;;
72466;Laerm;60471;52.150;4.508;2023-09-12T08:43:23;59.85;48.24;70.50;;
72466;Laerm;60471;52.150;4.508;2023-09-12T08:45:50;59.57;49.07;69.68;;
72466;Laerm;60471;52.150;4.508;2023-09-12T08:48:18;60.22;47.38;69.69;;
72466;Laerm;60471;52.150;4.508;2023-09-12T08:50:49;59.40;46.69;70.78;;
72466;Laerm;60471;52.150;4.508;2023-09-12T08:53:15;58.93;44.93;69.72;;
72466;Laerm;60471;52.150;4.508;2023-09-12T08:55:42;58.75;45.83;70.11;;
72466;Laerm;60471;52.150;4.508;2023-09-12T08:58:08;59.57;45.45;79.96;;
72466;Laerm;60471;52.150;4.508;2023-09-12T09:00:35;58.72;46.05;69.35;;
72466;Laerm;60471;52.150;4.508;2023-09-12T09:03:03;58.99;44.30;69.63;;
72466;Laerm;60471;52.150;4.508;2023-09-12T09:05:31;58.48;43.79;69.20;;
72466;Laerm;60471;52.150;4.508;2023-09-12T09:08:00;58.58;43.77;70.98;;
72466;Laerm;60471;52.150;4.508;2023-09-12T09:10:27;59.11;45.89;69.35;;
72466;Laerm;60471;52.150;4.508;2023-09-12T09:12:58;58.76;46.15;69.68;;
72466;Laerm;60471;52.150;4.508;2023-09-12T09:15:27;58.37;44.70;69.42;;
72466;Laerm;60471;52.150;4.508;2023-09-12T09:17:56;58.51;43.35;69.11;;
72466;Laerm;60471;52.150;4.508;2023-09-12T09:20:30;58.42;43.69;69.76;;
72466;Laerm;60471;52.150;4.508;2023-09-12T09:23:00;58.30;44.67;69.64;;
72466;Laerm;60471;52.150;4.508;2023-09-12T09:25:27;58.60;45.60;69.10;;
72466;Laerm;60471;52.150;4.508;2023-09-12T09:27:54;58.19;45.09;70.23;;
72466;Laerm;60471;52.150;4.508;2023-09-12T09:30:44;57.85;43.20;70.05;;
72466;Laerm;60471;52.150;4.508;2023-09-12T09:33:12;59.41;45.63;69.50;;
72466;Laerm;60471;52.150;4.508;2023-09-12T09:35:43;57.87;43.50;69.40;;
72466;Laerm;60471;52.150;4.508;2023-09-12T09:38:11;58.94;46.86;69.97;;
72466;Laerm;60471;52.150;4.508;2023-09-12T09:40:43;57.11;45.52;67.98;;
72466;Laerm;60471;52.150;4.508;2023-09-12T09:43:10;58.35;43.74;69.41;;
72466;Laerm;60471;52.150;4.508;2023-09-12T09:45:45;59.03;43.82;69.28;;
72466;Laerm;60471;52.150;4.508;2023-09-12T09:48:22;58.84;43.55;70.11;;
72466;Laerm;60471;52.150;4.508;2023-09-12T09:50:49;58.59;44.54;69.65;;
72466;Laerm;60471;52.150;4.508;2023-09-12T09:53:15;58.32;43.02;70.47;;
72466;Laerm;60471;52.150;4.508;2023-09-12T09:55:41;58.33;43.36;71.67;;
72466;Laerm;60471;52.150;4.508;2023-09-12T09:58:16;59.22;45.94;69.49;;
72466;Laerm;60471;52.150;4.508;2023-09-12T10:00:44;59.29;45.76;70.78;;
72466;Laerm;60471;52.150;4.508;2023-09-12T10:03:12;58.87;43.65;70.25;;
72466;Laerm;60471;52.150;4.508;2023-09-12T10:05:40;59.24;44.70;70.21;;
72466;Laerm;60471;52.150;4.508;2023-09-12T10:08:11;58.63;44.14;69.82;;
72466;Laerm;60471;52.150;4.508;2023-09-12T10:10:38;58.57;44.22;69.50;;
72466;Laerm;60471;52.150;4.508;2023-09-12T10:13:08;58.31;43.03;69.72;;
72466;Laerm;60471;52.150;4.508;2023-09-12T10:15:38;58.35;44.10;69.88;;
72466;Laerm;60471;52.150;4.508;2023-09-12T10:18:09;58.23;44.69;69.32;;
72466;Laerm;60471;52.150;4.508;2023-09-12T10:20:58;58.76;45.08;70.10;;
72466;Laerm;60471;52.150;4.508;2023-09-12T10:23:27;59.00;45.66;69.93;;
72466;Laerm;60471;52.150;4.508;2023-09-12T10:25:58;59.06;47.55;70.11;;
72466;Laerm;60471;52.150;4.508;2023-09-12T10:28:24;59.12;46.23;70.64;;
72466;Laerm;60471;52.150;4.508;2023-09-12T10:30:53;59.48;47.36;69.77;;
72466;Laerm;60471;52.150;4.508;2023-09-12T10:33:23;58.67;45.89;70.23;;
72466;Laerm;60471;52.150;4.508;2023-09-12T10:35:50;58.83;46.03;69.77;;
72466;Laerm;60471;52.150;4.508;2023-09-12T10:38:20;58.57;45.37;71.53;;
72466;Laerm;60471;52.150;4.508;2023-09-12T10:40:54;58.40;45.13;70.06;;
72466;Laerm;60471;52.150;4.508;2023-09-12T10:43:23;58.08;44.13;68.35;;
72466;Laerm;60471;52.150;4.508;2023-09-12T10:45:52;58.12;46.78;66.35;;
72466;Laerm;60471;52.150;4.508;2023-09-12T10:48:19;56.42;42.58;65.76;;
72466;Laerm;60471;52.150;4.508;2023-09-12T10:50:46;55.64;42.55;64.99;;
72466;Laerm;60471;52.150;4.508;2023-09-12T10:53:15;56.70;47.90;66.23;;
72466;Laerm;60471;52.150;4.508;2023-09-12T10:55:42;57.69;45.78;68.36;;
72466;Laerm;60471;52.150;4.508;2023-09-12T10:58:23;57.34;45.17;67.37;;
72466;Laerm;60471;52.150;4.508;2023-09-12T11:01:24;57.78;45.04;69.64;;
72466;Laerm;60471;52.150;4.508;2023-09-12T11:03:51;58.83;47.19;69.38;;
72466;Laerm;60471;52.150;4.508;2023-09-12T11:06:27;58.67;45.73;69.28;;
72466;Laerm;60471;52.150;4.508;2023-09-12T11:12:04;59.34;44.61;85.82;;
72466;Laerm;60471;52.150;4.508;2023-09-12T11:14:36;68.54;47.27;88.69;;
72466;Laerm;60471;52.150;4.508;2023-09-12T11:19:52;57.27;45.77;68.10;;
72466;Laerm;60471;52.150;4.508;2023-09-12T11:22:28;58.68;45.91;70.50;;
72466;Laerm;60471;52.150;4.508;2023-09-12T11:24:55;58.58;44.19;69.40;;
72466;Laerm;60471;52.150;4.508;2023-09-12T11:27:25;58.49;43.73;69.71;;
72466;Laerm;60471;52.150;4.508;2023-09-12T11:29:51;58.97;43.58;69.53;;
72466;Laerm;60471;52.150;4.508;2023-09-12T11:32:35;59.60;45.30;76.61;;
72466;Laerm;60471;52.150;4.508;2023-09-12T11:35:07;59.67;44.45;76.89;;
72466;Laerm;60471;52.150;4.508;2023-09-12T11:37:35;58.35;42.95;69.26;;
72466;Laerm;60471;52.150;4.508;2023-09-12T11:42:40;60.00;44.79;78.11;;
72466;Laerm;60471;52.150;4.508;2023-09-12T11:45:09;58.87;44.88;69.70;;
72466;Laerm;60471;52.150;4.508;2023-09-12T11:47:43;57.68;43.62;69.27;;
72466;Laerm;60471;52.150;4.508;2023-09-12T11:50:27;58.45;43.95;67.85;;
72466;Laerm;60471;52.150;4.508;2023-09-12T11:53:04;57.18;45.22;67.37;;
72466;Laerm;60471;52.150;4.508;2023-09-12T11:55:46;56.99;44.35;68.52;;
72466;Laerm;60471;52.150;4.508;2023-09-12T11:58:15;55.66;42.70;66.25;;
72466;Laerm;60471;52.150;4.508;2023-09-12T12:00:51;58.19;44.39;65.82;;
72466;Laerm;60471;52.150;4.508;2023-09-12T12:03:23;58.43;46.18;74.40;;
72466;Laerm;60471;52.150;4.508;2023-09-12T12:05:50;57.09;45.35;69.04;;
72466;Laerm;60471;52.150;4.508;2023-09-12T12:08:18;57.45;44.38;66.80;;
72466;Laerm;60471;52.150;4.508;2023-09-12T12:10:50;58.74;43.99;69.94;;
72466;Laerm;60471;52.150;4.508;2023-09-12T12:13:19;58.66;46.13;70.42;;
72466;Laerm;60471;52.150;4.508;2023-09-12T12:15:46;59.51;46.62;74.95;;
72466;Laerm;60471;52.150;4.508;2023-09-12T12:18:13;59.04;47.51;71.18;;
72466;Laerm;60471;52.150;4.508;2023-09-12T12:20:39;58.63;47.61;69.24;;
72466;Laerm;60471;52.150;4.508;2023-09-12T12:23:06;59.72;49.37;71.38;;
72466;Laerm;60471;52.150;4.508;2023-09-12T12:25:35;59.61;49.41;74.23;;
72466;Laerm;60471;52.150;4.508;2023-09-12T12:28:04;59.81;49.91;71.85;;
72466;Laerm;60471;52.150;4.508;2023-09-12T12:30:32;60.66;50.03;70.42;;
72466;Laerm;60471;52.150;4.508;2023-09-12T12:33:02;60.05;50.03;69.89;;
72466;Laerm;60471;52.150;4.508;2023-09-12T12:35:32;59.77;49.45;70.07;;
72466;Laerm;60471;52.150;4.508;2023-09-12T12:37:58;60.04;48.87;71.14;;
72466;Laerm;60471;52.150;4.508;2023-09-12T12:40:25;60.32;48.87;70.54;;
72466;Laerm;60471;52.150;4.508;2023-09-12T12:42:51;59.65;48.97;70.40;;
72466;Laerm;60471;52.150;4.508;2023-09-12T12:45:21;59.91;48.64;70.87;;
72466;Laerm;60471;52.150;4.508;2023-09-12T12:47:57;59.52;49.02;71.33;;
72466;Laerm;60471;52.150;4.508;2023-09-12T12:50:24;60.09;48.28;70.53;;
72466;Laerm;60471;52.150;4.508;2023-09-12T12:52:50;59.87;49.31;70.39;;
72466;Laerm;60471;52.150;4.508;2023-09-12T12:55:16;60.01;49.26;70.39;;
72466;Laerm;60471;52.150;4.508;2023-09-12T12:57:44;60.37;49.95;71.48;;
72466;Laerm;60471;52.150;4.508;2023-09-12T13:00:13;60.06;50.60;70.39;;
72466;Laerm;60471;52.150;4.508;2023-09-12T13:02:42;60.34;50.84;71.24;;
72466;Laerm;60471;52.150;4.508;2023-09-12T13:07:49;59.62;46.47;70.65;;
72466;Laerm;60471;52.150;4.508;2023-09-12T13:10:18;58.73;44.92;69.74;;
72466;Laerm;60471;52.150;4.508;2023-09-12T13:12:44;58.98;46.78;69.42;;
72466;Laerm;60471;52.150;4.508;2023-09-12T13:15:16;57.81;45.94;69.17;;
72466;Laerm;60471;52.150;4.508;2023-09-12T13:17:44;57.49;44.86;68.16;;
72466;Laerm;60471;52.150;4.508;2023-09-12T13:20:11;59.46;50.32;69.45;;
72466;Laerm;60471;52.150;4.508;2023-09-12T13:22:38;58.37;45.94;68.98;;
72466;Laerm;60471;52.150;4.508;2023-09-12T13:25:06;59.85;47.14;70.73;;
72466;Laerm;60471;52.150;4.508;2023-09-12T13:27:33;59.05;48.22;69.93;;
72466;Laerm;60471;52.150;4.508;2023-09-12T13:29:59;61.37;46.98;72.92;;
72466;Laerm;60471;52.150;4.508;2023-09-12T13:32:26;58.21;43.75;69.22;;
72466;Laerm;60471;52.150;4.508;2023-09-12T13:34:53;58.28;45.33;69.67;;
72466;Laerm;60471;52.150;4.508;2023-09-12T13:37:19;58.57;44.90;69.30;;
72466;Laerm;60471;52.150;4.508;2023-09-12T13:39:45;59.06;43.96;68.75;;
72466;Laerm;60471;52.150;4.508;2023-09-12T13:42:18;58.30;44.00;69.83;;
72466;Laerm;60471;52.150;4.508;2023-09-12T13:44:47;60.24;42.51;79.16;;
72466;Laerm;60471;52.150;4.508;2023-09-12T13:47:14;58.49;45.37;69.17;;
72466;Laerm;60471;52.150;4.508;2023-09-12T13:49:48;59.37;44.91;68.16;;
72466;Laerm;60471;52.150;4.508;2023-09-12T13:52:14;57.00;45.74;66.45;;
72466;Laerm;60471;52.150;4.508;2023-09-12T13:54:43;56.89;44.69;66.79;;
72466;Laerm;60471;52.150;4.508;2023-09-12T13:57:09;57.22;44.15;71.06;;
72466;Laerm;60471;52.150;4.508;2023-09-12T13:59:36;57.96;47.12;66.26;;
72466;Laerm;60471;52.150;4.508;2023-09-12T14:02:02;58.50;43.10;70.48;;